sensor_id;sensor_type;location;lat;lon;timestamp;P1;P2;P0
44933;PMS3003;30667;43.614;1.442;2024-01-15T00:02:07;33.25;30.50;19.75
44933;PMS3003;30667;43.614;1.442;2024-01-15T00:04:37;28.25;27.00;18.00
44933;PMS3003;30667;43.614;1.442;2024-01-15T00:07:03;29.00;26.20;18.60
44933;PMS3003;30667;43.614;1.442;2024-01-15T00:09:29;25.80;25.00;17.40
44933;PMS3003;30667;43.614;1.442;2024-01-15T00:11:54;22.50;21.25;14.50
44933;PMS3003;30667;43.614;1.442;2024-01-15T00:14:20;25.00;23.25;17.00
44933;PMS3003;30667;43.614;1.442;2024-01-15T00:16:46;24.50;23.75;17.00
44933;PMS3003;30667;43.614;1.442;2024-01-15T00:19:11;28.20;23.40;14.60
44933;PMS3003;30667;43.614;1.442;2024-01-15T00:21:37;25.25;23.00;15.25
44933;PMS3003;30667;43.614;1.442;2024-01-15T00:24:02;23.50;22.00;14.00
44933;PMS3003;30667;43.614;1.442;2024-01-15T00:26:28;27.50;23.25;14.75
44933;PMS3003;30667;43.614;1.442;2024-01-15T00:28:54;26.80;23.00;14.80
44933;PMS3003;30667;43.614;1.442;2024-01-15T00:31:20;26.50;24.00;17.00
44933;PMS3003;30667;43.614;1.442;2024-01-15T00:33:45;26.75;22.75;15.50
44933;PMS3003;30667;43.614;1.442;2024-01-15T00:36:11;26.40;25.00;18.00
44933;PMS3003;30667;43.614;1.442;2024-01-15T00:38:36;25.25;21.25;13.75
44933;PMS3003;30667;43.614;1.442;2024-01-15T00:41:02;23.75;23.00;14.50
44933;PMS3003;30667;43.614;1.442;2024-01-15T00:43:28;22.50;22.00;13.00
44933;PMS3003;30667;43.614;1.442;2024-01-15T00:45:53;22.00;22.00;13.75
44933;PMS3003;30667;43.614;1.442;2024-01-15T00:48:18;21.75;21.00;13.75
44933;PMS3003;30667;43.614;1.442;2024-01-15T00:50:44;27.75;26.25;18.50
44933;PMS3003;30667;43.614;1.442;2024-01-15T00:53:09;48.75;38.00;23.25
44933;PMS3003;30667;43.614;1.442;2024-01-15T00:55:34;31.25;25.75;16.50
44933;PMS3003;30667;43.614;1.442;2024-01-15T00:58:01;22.00;21.80;14.00
44933;PMS3003;30667;43.614;1.442;2024-01-15T01:00:26;22.00;22.00;13.25
44933;PMS3003;30667;43.614;1.442;2024-01-15T01:02:51;23.25;22.00;13.00
44933;PMS3003;30667;43.614;1.442;2024-01-15T01:05:17;22.50;20.25;11.25
44933;PMS3003;30667;43.614;1.442;2024-01-15T01:07:42;23.25;22.00;14.00
44933;PMS3003;30667;43.614;1.442;2024-01-15T01:10:08;26.00;22.00;13.50
44933;PMS3003;30667;43.614;1.442;2024-01-15T01:12:33;25.75;22.25;14.00
44933;PMS3003;30667;43.614;1.442;2024-01-15T01:14:58;25.50;22.00;14.25
44933;PMS3003;30667;43.614;1.442;2024-01-15T01:17:24;22.75;22.25;15.00
44933;PMS3003;30667;43.614;1.442;2024-01-15T01:19:50;27.00;24.40;16.00
44933;PMS3003;30667;43.614;1.442;2024-01-15T01:22:15;26.00;23.75;14.50
44933;PMS3003;30667;43.614;1.442;2024-01-15T01:24:41;24.50;23.00;14.25
44933;PMS3003;30667;43.614;1.442;2024-01-15T01:27:06;22.75;21.50;14.50
44933;PMS3003;30667;43.614;1.442;2024-01-15T01:29:32;21.50;21.25;10.25
44933;PMS3003;30667;43.614;1.442;2024-01-15T01:31:58;21.40;20.80;12.40
44933;PMS3003;30667;43.614;1.442;2024-01-15T01:34:23;21.00;20.50;13.00
44933;PMS3003;30667;43.614;1.442;2024-01-15T01:36:48;21.75;21.00;14.00
44933;PMS3003;30667;43.614;1.442;2024-01-15T01:39:14;22.50;19.25;13.25
44933;PMS3003;30667;43.614;1.442;2024-01-15T01:41:39;25.25;22.25;14.00
44933;PMS3003;30667;43.614;1.442;2024-01-15T01:44:05;25.00;22.00;11.00
44933;PMS3003;30667;43.614;1.442;2024-01-15T01:46:30;21.00;19.50;13.00
44933;PMS3003;30667;43.614;1.442;2024-01-15T01:48:56;25.60;20.80;12.80
44933;PMS3003;30667;43.614;1.442;2024-01-15T01:51:23;22.60;20.00;13.20
44933;PMS3003;30667;43.614;1.442;2024-01-15T01:53:50;20.00;18.40;11.60
44933;PMS3003;30667;43.614;1.442;2024-01-15T01:56:16;19.00;18.20;11.00
44933;PMS3003;30667;43.614;1.442;2024-01-15T01:58:43;26.60;21.40;12.80
44933;PMS3003;30667;43.614;1.442;2024-01-15T02:01:10;31.40;28.60;18.00
44933;PMS3003;30667;43.614;1.442;2024-01-15T02:03:39;26.40;24.00;17.00
44933;PMS3003;30667;43.614;1.442;2024-01-15T02:06:05;24.20;19.60;12.40
44933;PMS3003;30667;43.614;1.442;2024-01-15T02:08:31;23.00;22.00;14.00
44933;PMS3003;30667;43.614;1.442;2024-01-15T02:10:56;20.25;19.00;13.50
44933;PMS3003;30667;43.614;1.442;2024-01-15T02:13:22;22.75;21.25;14.75
44933;PMS3003;30667;43.614;1.442;2024-01-15T02:15:47;26.00;23.00;14.75
44933;PMS3003;30667;43.614;1.442;2024-01-15T02:18:12;28.75;22.25;16.00
44933;PMS3003;30667;43.614;1.442;2024-01-15T02:20:38;33.75;28.75;18.50
44933;PMS3003;30667;43.614;1.442;2024-01-15T02:23:13;35.00;26.25;18.00
44933;PMS3003;30667;43.614;1.442;2024-01-15T02:25:40;30.60;30.00;19.00
44933;PMS3003;30667;43.614;1.442;2024-01-15T02:28:07;30.00;25.80;15.80
44933;PMS3003;30667;43.614;1.442;2024-01-15T02:30:38;27.40;25.60;17.60
44933;PMS3003;30667;43.614;1.442;2024-01-15T02:33:06;25.80;22.80;15.20
44933;PMS3003;30667;43.614;1.442;2024-01-15T02:35:34;24.60;24.60;16.20
44933;PMS3003;30667;43.614;1.442;2024-01-15T02:38:04;26.00;22.20;15.00
44933;PMS3003;30667;43.614;1.442;2024-01-15T02:40:30;27.20;22.60;14.80
44933;PMS3003;30667;43.614;1.442;2024-01-15T02:42:55;26.25;23.00;14.50
44933;PMS3003;30667;43.614;1.442;2024-01-15T02:45:21;27.75;25.25;14.75
44933;PMS3003;30667;43.614;1.442;2024-01-15T02:47:48;24.20;21.60;15.00
44933;PMS3003;30667;43.614;1.442;2024-01-15T02:50:13;27.00;25.00;15.50
44933;PMS3003;30667;43.614;1.442;2024-01-15T02:52:39;26.25;22.50;14.25
44933;PMS3003;30667;43.614;1.442;2024-01-15T02:55:04;23.25;21.75;14.25
44933;PMS3003;30667;43.614;1.442;2024-01-15T02:57:30;23.75;22.00;14.50
44933;PMS3003;30667;43.614;1.442;2024-01-15T02:59:55;21.25;20.75;14.00
44933;PMS3003;30667;43.614;1.442;2024-01-15T03:02:21;21.50;21.50;14.25
44933;PMS3003;30667;43.614;1.442;2024-01-15T03:04:46;24.00;21.75;14.00
44933;PMS3003;30667;43.614;1.442;2024-01-15T03:07:11;27.75;22.25;15.00
44933;PMS3003;30667;43.614;1.442;2024-01-15T03:09:37;26.75;22.25;14.00
44933;PMS3003;30667;43.614;1.442;2024-01-15T03:12:03;26.00;22.75;14.00
44933;PMS3003;30667;43.614;1.442;2024-01-15T03:14:28;24.00;21.40;13.40
44933;PMS3003;30667;43.614;1.442;2024-01-15T03:16:54;25.00;22.25;14.25
44933;PMS3003;30667;43.614;1.442;2024-01-15T03:19:19;24.50;23.75;14.00
44933;PMS3003;30667;43.614;1.442;2024-01-15T03:21:45;27.50;24.25;14.75
44933;PMS3003;30667;43.614;1.442;2024-01-15T03:24:10;28.00;23.75;13.50
44933;PMS3003;30667;43.614;1.442;2024-01-15T03:26:35;22.25;21.25;14.00
44933;PMS3003;30667;43.614;1.442;2024-01-15T03:29:01;21.00;19.50;13.00
44933;PMS3003;30667;43.614;1.442;2024-01-15T03:31:26;22.50;20.50;12.75
44933;PMS3003;30667;43.614;1.442;2024-01-15T03:33:52;19.25;18.00;10.00
44933;PMS3003;30667;43.614;1.442;2024-01-15T03:36:17;31.75;20.75;12.00
44933;PMS3003;30667;43.614;1.442;2024-01-15T03:38:42;19.50;19.00;11.25
44933;PMS3003;30667;43.614;1.442;2024-01-15T03:41:08;23.00;21.00;13.25
44933;PMS3003;30667;43.614;1.442;2024-01-15T03:43:33;21.75;18.25;12.00
44933;PMS3003;30667;43.614;1.442;2024-01-15T03:45:59;22.50;20.00;11.25
44933;PMS3003;30667;43.614;1.442;2024-01-15T03:48:24;22.75;20.25;12.25
44933;PMS3003;30667;43.614;1.442;2024-01-15T03:50:49;20.75;18.50;12.00
44933;PMS3003;30667;43.614;1.442;2024-01-15T03:53:15;22.50;18.75;10.25
44933;PMS3003;30667;43.614;1.442;2024-01-15T03:55:40;24.00;20.25;12.50
44933;PMS3003;30667;43.614;1.442;2024-01-15T03:58:07;22.00;20.00;11.20
44933;PMS3003;30667;43.614;1.442;2024-01-15T04:00:32;25.50;21.50;13.25
44933;PMS3003;30667;43.614;1.442;2024-01-15T04:02:57;24.00;20.75;12.75
44933;PMS3003;30667;43.614;1.442;2024-01-15T04:05:23;23.75;20.75;12.00
44933;PMS3003;30667;43.614;1.442;2024-01-15T04:07:48;28.25;24.00;14.00
44933;PMS3003;30667;43.614;1.442;2024-01-15T04:10:14;26.00;22.00;13.00
44933;PMS3003;30667;43.614;1.442;2024-01-15T04:12:39;22.75;21.25;11.75
44933;PMS3003;30667;43.614;1.442;2024-01-15T04:15:04;23.25;22.75;13.00
44933;PMS3003;30667;43.614;1.442;2024-01-15T04:17:30;23.50;22.25;14.00
44933;PMS3003;30667;43.614;1.442;2024-01-15T04:19:55;24.00;20.00;13.00
44933;PMS3003;30667;43.614;1.442;2024-01-15T04:22:21;27.50;25.00;13.00
44933;PMS3003;30667;43.614;1.442;2024-01-15T04:24:46;27.00;23.00;13.25
44933;PMS3003;30667;43.614;1.442;2024-01-15T04:27:12;27.25;26.00;14.00
44933;PMS3003;30667;43.614;1.442;2024-01-15T04:29:37;29.75;26.00;16.25
44933;PMS3003;30667;43.614;1.442;2024-01-15T04:32:04;26.60;22.80;14.60
44933;PMS3003;30667;43.614;1.442;2024-01-15T04:34:29;29.50;26.00;15.50
44933;PMS3003;30667;43.614;1.442;2024-01-15T04:36:55;30.50;25.25;16.75
44933;PMS3003;30667;43.614;1.442;2024-01-15T04:39:22;30.00;27.25;16.50
44933;PMS3003;30667;43.614;1.442;2024-01-15T04:41:48;29.60;26.40;14.60
44933;PMS3003;30667;43.614;1.442;2024-01-15T04:44:13;33.75;28.50;17.00
44933;PMS3003;30667;43.614;1.442;2024-01-15T04:46:38;27.50;25.50;16.50
44933;PMS3003;30667;43.614;1.442;2024-01-15T04:49:04;28.00;25.25;15.50
44933;PMS3003;30667;43.614;1.442;2024-01-15T04:51:30;33.00;28.00;14.50
44933;PMS3003;30667;43.614;1.442;2024-01-15T04:53:55;30.75;26.75;16.00
44933;PMS3003;30667;43.614;1.442;2024-01-15T04:56:20;31.00;26.00;14.00
44933;PMS3003;30667;43.614;1.442;2024-01-15T04:58:46;36.75;30.00;18.00
44933;PMS3003;30667;43.614;1.442;2024-01-15T05:01:11;29.00;26.00;16.50
44933;PMS3003;30667;43.614;1.442;2024-01-15T05:03:37;28.50;26.00;17.00
44933;PMS3003;30667;43.614;1.442;2024-01-15T05:06:02;35.25;28.50;16.00
44933;PMS3003;30667;43.614;1.442;2024-01-15T05:08:28;35.00;29.25;16.00
44933;PMS3003;30667;43.614;1.442;2024-01-15T05:10:53;30.00;26.50;15.00
44933;PMS3003;30667;43.614;1.442;2024-01-15T05:13:18;32.75;24.50;13.75
44933;PMS3003;30667;43.614;1.442;2024-01-15T05:15:44;25.75;24.50;14.00
44933;PMS3003;30667;43.614;1.442;2024-01-15T05:18:09;36.00;29.75;16.75
44933;PMS3003;30667;43.614;1.442;2024-01-15T05:20:34;31.75;25.50;13.50
44933;PMS3003;30667;43.614;1.442;2024-01-15T05:23:00;32.75;27.25;17.00
44933;PMS3003;30667;43.614;1.442;2024-01-15T05:25:25;36.00;26.75;14.50
44933;PMS3003;30667;43.614;1.442;2024-01-15T05:27:51;36.00;30.00;16.50
44933;PMS3003;30667;43.614;1.442;2024-01-15T05:30:16;40.50;32.25;16.50
44933;PMS3003;30667;43.614;1.442;2024-01-15T05:32:41;31.75;29.75;17.00
44933;PMS3003;30667;43.614;1.442;2024-01-15T05:35:07;38.75;30.00;17.75
44933;PMS3003;30667;43.614;1.442;2024-01-15T05:37:32;34.50;29.25;16.50
44933;PMS3003;30667;43.614;1.442;2024-01-15T05:40:01;34.00;26.60;16.80
44933;PMS3003;30667;43.614;1.442;2024-01-15T05:42:26;39.75;29.00;17.25
44933;PMS3003;30667;43.614;1.442;2024-01-15T05:44:51;36.50;32.00;18.50
44933;PMS3003;30667;43.614;1.442;2024-01-15T05:47:17;37.50;31.25;18.00
44933;PMS3003;30667;43.614;1.442;2024-01-15T05:49:43;37.00;27.80;16.00
44933;PMS3003;30667;43.614;1.442;2024-01-15T05:52:09;34.50;29.00;17.00
44933;PMS3003;30667;43.614;1.442;2024-01-15T05:54:34;35.25;29.25;17.00
44933;PMS3003;30667;43.614;1.442;2024-01-15T05:57:00;31.00;27.75;16.00
44933;PMS3003;30667;43.614;1.442;2024-01-15T05:59:25;31.00;25.25;14.00
44933;PMS3003;30667;43.614;1.442;2024-01-15T06:01:50;33.25;24.25;13.00
44933;PMS3003;30667;43.614;1.442;2024-01-15T06:04:16;24.75;21.50;13.00
44933;PMS3003;30667;43.614;1.442;2024-01-15T06:06:41;25.75;22.25;11.25
44933;PMS3003;30667;43.614;1.442;2024-01-15T06:09:06;25.25;21.50;10.00
44933;PMS3003;30667;43.614;1.442;2024-01-15T06:11:32;27.50;23.75;12.75
44933;PMS3003;30667;43.614;1.442;2024-01-15T06:13:58;27.75;23.50;13.00
44933;PMS3003;30667;43.614;1.442;2024-01-15T06:16:25;28.60;25.20;13.80
44933;PMS3003;30667;43.614;1.442;2024-01-15T06:18:51;24.00;22.50;13.00
44933;PMS3003;30667;43.614;1.442;2024-01-15T06:21:16;31.50;23.00;13.75
44933;PMS3003;30667;43.614;1.442;2024-01-15T06:23:42;25.00;22.00;11.00
44933;PMS3003;30667;43.614;1.442;2024-01-15T06:26:07;31.50;24.00;13.00
44933;PMS3003;30667;43.614;1.442;2024-01-15T06:28:33;28.00;25.00;13.50
44933;PMS3003;30667;43.614;1.442;2024-01-15T06:30:58;27.25;23.50;12.00
44933;PMS3003;30667;43.614;1.442;2024-01-15T06:33:23;27.75;24.00;12.75
44933;PMS3003;30667;43.614;1.442;2024-01-15T06:35:50;26.00;25.75;13.00
44933;PMS3003;30667;43.614;1.442;2024-01-15T06:38:15;34.80;25.20;13.40
44933;PMS3003;30667;43.614;1.442;2024-01-15T06:40:44;28.00;22.50;13.00
44933;PMS3003;30667;43.614;1.442;2024-01-15T06:43:13;25.80;24.20;14.00
44933;PMS3003;30667;43.614;1.442;2024-01-15T06:45:40;30.00;23.20;12.60
44933;PMS3003;30667;43.614;1.442;2024-01-15T06:48:06;29.75;25.50;14.25
44933;PMS3003;30667;43.614;1.442;2024-01-15T06:50:32;26.20;22.80;13.80
44933;PMS3003;30667;43.614;1.442;2024-01-15T06:52:58;34.00;26.60;13.20
44933;PMS3003;30667;43.614;1.442;2024-01-15T06:55:23;33.25;23.75;13.00
44933;PMS3003;30667;43.614;1.442;2024-01-15T07:01:24;30.40;24.80;14.40
44933;PMS3003;30667;43.614;1.442;2024-01-15T07:03:50;30.50;25.50;13.50
44933;PMS3003;30667;43.614;1.442;2024-01-15T07:06:15;28.75;24.75;15.00
44933;PMS3003;30667;43.614;1.442;2024-01-15T07:08:41;27.00;22.00;12.80
44933;PMS3003;30667;43.614;1.442;2024-01-15T07:11:07;30.50;25.25;13.50
44933;PMS3003;30667;43.614;1.442;2024-01-15T07:13:33;28.20;23.00;12.60
44933;PMS3003;30667;43.614;1.442;2024-01-15T07:15:59;26.50;21.50;13.50
44933;PMS3003;30667;43.614;1.442;2024-01-15T07:18:24;23.25;21.00;11.25
44933;PMS3003;30667;43.614;1.442;2024-01-15T07:20:50;24.75;23.00;11.00
44933;PMS3003;30667;43.614;1.442;2024-01-15T07:23:16;25.60;22.40;12.20
44933;PMS3003;30667;43.614;1.442;2024-01-15T07:25:42;27.40;23.40;14.60
44933;PMS3003;30667;43.614;1.442;2024-01-15T07:28:07;27.50;22.50;13.00
44933;PMS3003;30667;43.614;1.442;2024-01-15T07:30:33;27.50;25.00;11.75
44933;PMS3003;30667;43.614;1.442;2024-01-15T07:32:58;27.25;23.75;13.00
44933;PMS3003;30667;43.614;1.442;2024-01-15T07:35:24;24.50;23.50;14.00
44933;PMS3003;30667;43.614;1.442;2024-01-15T07:37:49;27.00;23.00;14.00
44933;PMS3003;30667;43.614;1.442;2024-01-15T07:40:14;26.00;21.75;11.75
44933;PMS3003;30667;43.614;1.442;2024-01-15T07:42:40;26.25;22.75;13.00
44933;PMS3003;30667;43.614;1.442;2024-01-15T07:45:07;26.60;22.80;13.60
44933;PMS3003;30667;43.614;1.442;2024-01-15T07:47:33;27.20;22.00;14.00
44933;PMS3003;30667;43.614;1.442;2024-01-15T07:49:58;24.75;19.25;11.00
44933;PMS3003;30667;43.614;1.442;2024-01-15T07:52:24;31.00;22.00;12.75
44933;PMS3003;30667;43.614;1.442;2024-01-15T07:54:49;22.00;20.25;10.00
44933;PMS3003;30667;43.614;1.442;2024-01-15T07:57:14;24.50;22.00;13.50
44933;PMS3003;30667;43.614;1.442;2024-01-15T07:59:40;26.00;22.00;11.50
44933;PMS3003;30667;43.614;1.442;2024-01-15T08:02:05;28.50;20.00;11.75
44933;PMS3003;30667;43.614;1.442;2024-01-15T08:04:31;23.50;20.75;11.00
44933;PMS3003;30667;43.614;1.442;2024-01-15T08:06:56;24.00;22.00;11.75
44933;PMS3003;30667;43.614;1.442;2024-01-15T08:09:22;23.75;20.00;11.00
44933;PMS3003;30667;43.614;1.442;2024-01-15T08:11:48;21.50;19.25;11.25
44933;PMS3003;30667;43.614;1.442;2024-01-15T08:14:14;24.60;21.00;11.00
44933;PMS3003;30667;43.614;1.442;2024-01-15T08:16:40;27.00;22.75;14.00
44933;PMS3003;30667;43.614;1.442;2024-01-15T08:19:05;19.00;17.50;11.25
44933;PMS3003;30667;43.614;1.442;2024-01-15T08:21:31;26.50;20.25;11.00
44933;PMS3003;30667;43.614;1.442;2024-01-15T08:23:57;24.80;23.00;12.00
44933;PMS3003;30667;43.614;1.442;2024-01-15T08:26:24;23.80;21.60;11.60
44933;PMS3003;30667;43.614;1.442;2024-01-15T08:28:49;26.40;23.40;13.80
44933;PMS3003;30667;43.614;1.442;2024-01-15T08:31:15;31.25;26.75;15.50
44933;PMS3003;30667;43.614;1.442;2024-01-15T08:33:40;24.50;24.50;15.00
44933;PMS3003;30667;43.614;1.442;2024-01-15T08:36:06;33.50;27.25;15.25
44933;PMS3003;30667;43.614;1.442;2024-01-15T08:38:31;31.25;27.75;17.75
44933;PMS3003;30667;43.614;1.442;2024-01-15T08:40:58;35.40;31.20;16.80
44933;PMS3003;30667;43.614;1.442;2024-01-15T08:43:25;40.00;33.80;18.20
44933;PMS3003;30667;43.614;1.442;2024-01-15T08:45:51;32.60;27.00;15.20
44933;PMS3003;30667;43.614;1.442;2024-01-15T08:48:17;39.25;31.50;16.75
44933;PMS3003;30667;43.614;1.442;2024-01-15T08:50:42;34.50;31.00;18.00
44933;PMS3003;30667;43.614;1.442;2024-01-15T08:53:10;28.20;27.20;14.40
44933;PMS3003;30667;43.614;1.442;2024-01-15T08:55:36;35.00;31.00;18.25
44933;PMS3003;30667;43.614;1.442;2024-01-15T08:58:02;38.25;31.25;17.75
44933;PMS3003;30667;43.614;1.442;2024-01-15T09:00:28;37.80;30.40;16.20
44933;PMS3003;30667;43.614;1.442;2024-01-15T09:02:53;41.50;36.00;19.25
44933;PMS3003;30667;43.614;1.442;2024-01-15T09:05:19;37.00;29.00;17.75
44933;PMS3003;30667;43.614;1.442;2024-01-15T09:07:44;41.50;35.50;20.25
44933;PMS3003;30667;43.614;1.442;2024-01-15T09:10:11;34.40;31.20;19.00
44933;PMS3003;30667;43.614;1.442;2024-01-15T09:12:36;46.50;34.50;19.00
44933;PMS3003;30667;43.614;1.442;2024-01-15T09:15:01;37.75;31.00;18.50
44933;PMS3003;30667;43.614;1.442;2024-01-15T09:17:29;40.00;33.40;19.00
44933;PMS3003;30667;43.614;1.442;2024-01-15T09:19:54;38.25;30.75;18.25
44933;PMS3003;30667;43.614;1.442;2024-01-15T09:22:20;36.00;31.75;17.50
44933;PMS3003;30667;43.614;1.442;2024-01-15T09:24:45;34.00;30.75;18.00
44933;PMS3003;30667;43.614;1.442;2024-01-15T09:27:11;35.00;29.40;16.00
44933;PMS3003;30667;43.614;1.442;2024-01-15T09:29:36;36.75;29.50;15.00
44933;PMS3003;30667;43.614;1.442;2024-01-15T09:32:05;32.00;29.40;15.40
44933;PMS3003;30667;43.614;1.442;2024-01-15T09:34:32;30.40;26.60;16.20
44933;PMS3003;30667;43.614;1.442;2024-01-15T09:36:58;34.50;28.75;16.50
44933;PMS3003;30667;43.614;1.442;2024-01-15T09:39:24;35.60;30.20;16.40
44933;PMS3003;30667;43.614;1.442;2024-01-15T09:41:51;37.40;31.00;17.40
44933;PMS3003;30667;43.614;1.442;2024-01-15T09:44:17;46.80;29.60;19.20
44933;PMS3003;30667;43.614;1.442;2024-01-15T09:46:44;28.00;25.40;16.20
44933;PMS3003;30667;43.614;1.442;2024-01-15T09:49:10;33.40;28.60;16.40
44933;PMS3003;30667;43.614;1.442;2024-01-15T09:51:36;37.25;28.25;16.00
44933;PMS3003;30667;43.614;1.442;2024-01-15T09:54:02;35.60;30.40;17.00
44933;PMS3003;30667;43.614;1.442;2024-01-15T09:56:29;41.20;32.20;19.40
44933;PMS3003;30667;43.614;1.442;2024-01-15T09:58:55;35.20;29.40;17.20
44933;PMS3003;30667;43.614;1.442;2024-01-15T10:01:22;35.20;30.40;18.20
44933;PMS3003;30667;43.614;1.442;2024-01-15T10:03:48;41.00;32.60;18.60
44933;PMS3003;30667;43.614;1.442;2024-01-15T10:06:18;32.40;28.80;17.00
44933;PMS3003;30667;43.614;1.442;2024-01-15T10:08:49;35.60;29.00;16.40
44933;PMS3003;30667;43.614;1.442;2024-01-15T10:11:16;35.40;29.40;17.00
44933;PMS3003;30667;43.614;1.442;2024-01-15T10:13:44;25.50;23.25;15.00
44933;PMS3003;30667;43.614;1.442;2024-01-15T10:16:10;32.00;28.20;17.40
44933;PMS3003;30667;43.614;1.442;2024-01-15T10:18:36;34.75;34.00;18.75
44933;PMS3003;30667;43.614;1.442;2024-01-15T10:21:11;29.00;24.00;14.00
44933;PMS3003;30667;43.614;1.442;2024-01-15T10:23:36;30.00;27.00;15.00
44933;PMS3003;30667;43.614;1.442;2024-01-15T10:26:02;29.25;24.50;14.00
44933;PMS3003;30667;43.614;1.442;2024-01-15T10:28:28;26.20;23.20;14.00
44933;PMS3003;30667;43.614;1.442;2024-01-15T10:30:56;29.20;23.60;15.00
44933;PMS3003;30667;43.614;1.442;2024-01-15T10:33:22;21.60;20.20;13.20
44933;PMS3003;30667;43.614;1.442;2024-01-15T10:35:57;26.20;23.00;14.40
44933;PMS3003;30667;43.614;1.442;2024-01-15T10:38:24;26.00;22.00;12.40
44933;PMS3003;30667;43.614;1.442;2024-01-15T10:40:53;24.00;20.00;11.25
44933;PMS3003;30667;43.614;1.442;2024-01-15T10:43:19;23.40;20.00;11.80
44933;PMS3003;30667;43.614;1.442;2024-01-15T10:45:45;25.50;21.25;12.75
44933;PMS3003;30667;43.614;1.442;2024-01-15T10:48:11;26.60;22.60;14.00
44933;PMS3003;30667;43.614;1.442;2024-01-15T10:50:37;25.50;24.00;15.00
44933;PMS3003;30667;43.614;1.442;2024-01-15T10:53:09;26.25;22.25;13.25
44933;PMS3003;30667;43.614;1.442;2024-01-15T10:55:36;26.40;24.00;14.00
44933;PMS3003;30667;43.614;1.442;2024-01-15T10:58:03;33.80;26.20;16.20
44933;PMS3003;30667;43.614;1.442;2024-01-15T11:00:29;32.75;31.25;19.00
44933;PMS3003;30667;43.614;1.442;2024-01-15T11:02:57;27.80;26.00;16.60
44933;PMS3003;30667;43.614;1.442;2024-01-15T11:05:33;33.00;31.20;16.80
44933;PMS3003;30667;43.614;1.442;2024-01-15T11:08:08;33.20;30.60;17.00
44933;PMS3003;30667;43.614;1.442;2024-01-15T11:13:19;41.60;29.80;17.00
44933;PMS3003;30667;43.614;1.442;2024-01-15T11:18:26;34.20;30.00;17.60
44933;PMS3003;30667;43.614;1.442;2024-01-15T11:23:50;30.60;28.60;17.60
44933;PMS3003;30667;43.614;1.442;2024-01-15T11:34:20;37.20;31.80;19.40
44933;PMS3003;30667;43.614;1.442;2024-01-15T11:37:11;45.80;33.00;19.80
44933;PMS3003;30667;43.614;1.442;2024-01-15T11:39:43;38.20;31.40;19.40
44933;PMS3003;30667;43.614;1.442;2024-01-15T11:45:23;35.80;33.60;20.60
44933;PMS3003;30667;43.614;1.442;2024-01-15T11:50:39;40.80;35.40;20.60
44933;PMS3003;30667;43.614;1.442;2024-01-15T11:53:09;40.80;33.40;21.40
44933;PMS3003;30667;43.614;1.442;2024-01-15T11:55:42;35.60;32.00;18.80
44933;PMS3003;30667;43.614;1.442;2024-01-15T11:58:10;31.00;27.60;16.60
44933;PMS3003;30667;43.614;1.442;2024-01-15T12:00:39;36.20;32.40;18.60
44933;PMS3003;30667;43.614;1.442;2024-01-15T12:03:09;38.20;34.60;21.60
44933;PMS3003;30667;43.614;1.442;2024-01-15T12:05:36;37.20;34.20;19.00
44933;PMS3003;30667;43.614;1.442;2024-01-15T12:08:02;34.00;31.60;20.40
44933;PMS3003;30667;43.614;1.442;2024-01-15T12:10:28;38.50;31.50;19.75
44933;PMS3003;30667;43.614;1.442;2024-01-15T12:12:57;37.80;33.60;19.80
44933;PMS3003;30667;43.614;1.442;2024-01-15T12:15:37;36.00;31.40;17.60
44933;PMS3003;30667;43.614;1.442;2024-01-15T12:18:06;31.80;28.60;17.00
44933;PMS3003;30667;43.614;1.442;2024-01-15T12:20:33;32.80;29.60;18.00
44933;PMS3003;30667;43.614;1.442;2024-01-15T12:22:59;33.50;29.50;17.25
44933;PMS3003;30667;43.614;1.442;2024-01-15T12:25:28;30.60;27.80;16.20
44933;PMS3003;30667;43.614;1.442;2024-01-15T12:27:55;30.40;27.80;16.60
44933;PMS3003;30667;43.614;1.442;2024-01-15T12:30:21;35.00;31.00;17.80
44933;PMS3003;30667;43.614;1.442;2024-01-15T12:32:46;33.25;31.00;18.25
44933;PMS3003;30667;43.614;1.442;2024-01-15T12:35:12;37.75;32.00;18.50
44933;PMS3003;30667;43.614;1.442;2024-01-15T12:37:43;31.40;27.00;17.20
44933;PMS3003;30667;43.614;1.442;2024-01-15T12:40:11;34.00;26.80;17.20
44933;PMS3003;30667;43.614;1.442;2024-01-15T12:42:39;34.80;29.80;17.80
44933;PMS3003;30667;43.614;1.442;2024-01-15T12:45:09;32.40;28.00;17.80
44933;PMS3003;30667;43.614;1.442;2024-01-15T12:47:35;34.80;29.40;18.80
44933;PMS3003;30667;43.614;1.442;2024-01-15T12:50:01;33.60;28.60;17.80
44933;PMS3003;30667;43.614;1.442;2024-01-15T12:52:30;31.25;28.75;18.00
44933;PMS3003;30667;43.614;1.442;2024-01-15T12:54:56;32.40;28.20;18.20
44933;PMS3003;30667;43.614;1.442;2024-01-15T12:57:22;31.50;27.50;16.50
44933;PMS3003;30667;43.614;1.442;2024-01-15T12:59:48;34.75;29.75;19.50
44933;PMS3003;30667;43.614;1.442;2024-01-15T13:02:15;31.40;30.00;17.60
44933;PMS3003;30667;43.614;1.442;2024-01-15T13:04:41;34.20;31.60;20.40
44933;PMS3003;30667;43.614;1.442;2024-01-15T13:07:07;29.00;27.60;19.00
44933;PMS3003;30667;43.614;1.442;2024-01-15T13:09:33;33.80;29.80;18.20
44933;PMS3003;30667;43.614;1.442;2024-01-15T13:12:00;31.80;29.80;20.20
44933;PMS3003;30667;43.614;1.442;2024-01-15T13:14:26;37.00;34.80;23.40
44933;PMS3003;30667;43.614;1.442;2024-01-15T13:16:52;35.25;31.25;21.00
44933;PMS3003;30667;43.614;1.442;2024-01-15T13:19:18;29.00;28.20;19.80
44933;PMS3003;30667;43.614;1.442;2024-01-15T13:21:44;29.60;28.60;20.00
44933;PMS3003;30667;43.614;1.442;2024-01-15T13:24:10;31.75;31.00;19.00
44933;PMS3003;30667;43.614;1.442;2024-01-15T13:26:36;32.60;30.40;21.00
44933;PMS3003;30667;43.614;1.442;2024-01-15T13:29:05;33.80;31.40;20.40
44933;PMS3003;30667;43.614;1.442;2024-01-15T13:31:31;36.60;30.00;19.20
44933;PMS3003;30667;43.614;1.442;2024-01-15T13:33:57;37.40;32.00;21.00
44933;PMS3003;30667;43.614;1.442;2024-01-15T13:36:23;32.20;28.60;19.60
44933;PMS3003;30667;43.614;1.442;2024-01-15T13:38:52;33.20;31.20;21.00
44933;PMS3003;30667;43.614;1.442;2024-01-15T13:41:18;30.40;28.00;18.20
44933;PMS3003;30667;43.614;1.442;2024-01-15T13:43:48;35.20;32.00;20.00
44933;PMS3003;30667;43.614;1.442;2024-01-15T13:46:15;31.40;27.80;18.20
44933;PMS3003;30667;43.614;1.442;2024-01-15T13:48:40;31.25;30.00;21.00
44933;PMS3003;30667;43.614;1.442;2024-01-15T13:51:05;34.75;30.75;20.00
44933;PMS3003;30667;43.614;1.442;2024-01-15T13:53:31;32.75;31.50;20.75
44933;PMS3003;30667;43.614;1.442;2024-01-15T13:55:56;37.00;35.00;21.00
44933;PMS3003;30667;43.614;1.442;2024-01-15T13:58:22;34.25;31.50;20.50
44933;PMS3003;30667;43.614;1.442;2024-01-15T14:00:47;29.25;26.75;18.00
44933;PMS3003;30667;43.614;1.442;2024-01-15T14:03:13;32.80;31.00;21.40
44933;PMS3003;30667;43.614;1.442;2024-01-15T14:05:39;31.80;28.60;19.40
44933;PMS3003;30667;43.614;1.442;2024-01-15T14:08:05;31.25;29.50;18.75